Terminal Aerodrome Forecast
Issued by NWS

Current Version | Previous Version | Text Only | Print | Product List | Glossary On
Versions: 1 2 3 4 5 6 7 8 9 10 11 12 13 14 15
733
FTUS44 KMAF 211255 AAA
TAFINK
TAF AMD
KINK 211255Z 2113/2212 24005KT P6SM SCT200
      TEMPO 2113/2115 3SM BR
     FM211600 26018G28KT P6SM SKC
     FM211800 26030G40KT 3SM BLDU SKC
     FM220100 26010KT P6SM SKC=

USA.gov is the U.S. government's official web portal to all federal, state and local government web resources and services.